ADDS METAR Data INFO
IDs: Format: Raw Decoded Include TAF

Data at: 2112 UTC 22 Oct 2017

METAR for:KVVG (The Villages, FL, US)
Text:KVVG 222050Z AUTO 00000KT 10SM 31/22 A2996 RMK A01
Temperature: 31.0°C ( 88°F)
Dewpoint: 22.0°C ( 72°F) [RH = 59%]
Pressure (altimeter):29.96 inches Hg (1014.6 mb)
Winds:calm
Visibility:10 or more sm (16+ km)
QC Flag:automated observation with no human augmentation